X  Cerrar Datos meteorológicos de aviación METAR        LECH Castellon-Costa Azahar
Temperatura
26°C Temperatura
13°C Punto de rocío
45% Humedad



Viento
9 KM/H
6 MPH
3 M/S
5 NUDO



100°
E
Condiciones actuales

Sunny Soleado
Presión 1016 (hPa) - 30.01 (inHg)
Visibilidad 6 (milla) - 9 (km)
Aeropuerto
Código de aeropuerto LECH

localidad: Castellon-Costa Azahar
Distancia: 45 (km)

Metar:
METAR LECH 221600Z AUTO 10005KT 050V170 9000 NCD 26/13 Q1018

Hora: 22-06-2024 18:00 CEST